createdAt,value
2022-10-20T00:04:56.609Z,76.67
2022-10-20T00:09:58.675Z,76.51
2022-10-20T00:15:00.806Z,76.57
2022-10-20T00:20:03.036Z,76.73
2022-10-20T00:25:05.723Z,77.01
2022-10-20T00:30:08.369Z,76.87
2022-10-20T00:35:10.550Z,77.20
2022-10-20T00:40:13.201Z,77.11
2022-10-20T00:45:18.707Z,77.24
2022-10-20T00:50:27.052Z,77.47
2022-10-20T00:55:31.574Z,77.46
2022-10-20T01:00:54.107Z,77.50
2022-10-20T01:05:56.276Z,77.64
2022-10-20T01:11:22.129Z,77.86
2022-10-20T01:16:50.281Z,78.26
2022-10-20T01:22:18.533Z,78.26
2022-10-20T01:27:40.484Z,78.41
2022-10-20T01:33:10.170Z,78.31
2022-10-20T01:38:21.487Z,78.13
2022-10-20T01:43:26.047Z,78.09
2022-10-20T01:48:32.568Z,78.16
2022-10-20T01:53:34.779Z,78.36
2022-10-20T01:59:10.946Z,78.54
2022-10-20T02:04:14.315Z,78.33
2022-10-20T02:09:20.851Z,78.62
2022-10-20T02:14:23.705Z,78.51
2022-10-20T02:19:31.936Z,78.63
2022-10-20T02:24:38.934Z,79.03
2022-10-20T02:30:02.406Z,79.17
2022-10-20T02:35:11.891Z,78.90
2022-10-20T02:40:14.345Z,78.68
2022-10-20T02:45:16.514Z,78.32
2022-10-20T02:50:18.817Z,78.55
2022-10-20T02:55:20.913Z,78.59
2022-10-20T03:00:23.131Z,78.64
2022-10-20T03:05:25.364Z,78.87
2022-10-20T03:10:27.540Z,78.74
2022-10-20T03:15:29.782Z,78.77
2022-10-20T03:20:32.284Z,79.12
2022-10-20T03:25:34.385Z,79.08
2022-10-20T03:30:36.498Z,79.02
2022-10-20T03:35:38.607Z,79.36
2022-10-20T03:40:40.789Z,79.03
2022-10-20T03:46:04.075Z,79.13
2022-10-20T03:51:25.252Z,79.04
2022-10-20T03:56:27.368Z,78.96
2022-10-20T04:01:48.623Z,79.15
2022-10-20T04:07:09.372Z,79.02
2022-10-20T04:12:11.593Z,79.13
2022-10-20T04:17:13.680Z,79.20
2022-10-20T04:22:34.525Z,79.45
2022-10-20T04:27:37.924Z,79.38
2022-10-20T04:32:40.363Z,79.29
2022-10-20T04:37:42.495Z,79.43
2022-10-20T04:42:44.661Z,79.42
2022-10-20T04:47:46.764Z,79.33
2022-10-20T04:52:48.935Z,79.32
2022-10-20T04:57:51.045Z,79.51
2022-10-20T05:03:14.395Z,79.49
2022-10-20T05:08:16.539Z,79.47
2022-10-20T05:13:18.747Z,79.47
2022-10-20T05:18:20.933Z,79.21
2022-10-20T05:23:23.090Z,78.90
2022-10-20T05:28:25.309Z,79.09
2022-10-20T05:33:48.323Z,79.03
2022-10-20T05:38:52.355Z,78.77
2022-10-20T05:43:59.955Z,78.67
2022-10-20T05:49:03.296Z,78.43
2022-10-20T05:54:05.512Z,78.54
2022-10-20T05:59:08.195Z,78.53
2022-10-20T06:04:10.289Z,78.11
2022-10-20T06:09:12.560Z,78.05
2022-10-20T06:14:15.395Z,77.67
2022-10-20T06:19:17.618Z,77.59
2022-10-20T06:24:20.118Z,77.37
2022-10-20T06:29:22.278Z,77.00
2022-10-20T06:34:25.744Z,76.30
2022-10-20T06:39:27.956Z,75.96
2022-10-20T06:44:30.056Z,75.50
2022-10-20T06:49:32.241Z,75.57
2022-10-20T06:54:34.317Z,75.22
2022-10-20T06:59:38.874Z,74.70
2022-10-20T07:04:41.146Z,74.73
2022-10-20T07:09:49.177Z,74.53
2022-10-20T07:14:51.347Z,74.54
2022-10-20T07:19:53.534Z,74.42
2022-10-20T07:24:55.733Z,74.01
2022-10-20T07:29:57.902Z,73.73
2022-10-20T07:35:00.016Z,73.73
2022-10-20T07:40:02.161Z,73.27
2022-10-20T07:45:06.422Z,73.33
2022-10-20T07:50:10.011Z,72.76
2022-10-20T07:55:36.624Z,72.37
2022-10-20T08:00:34.320Z,71.76
2022-10-20T08:05:36.524Z,71.02
2022-10-20T08:10:38.850Z,71.15
2022-10-20T08:16:09.076Z,71.30
2022-10-20T08:21:17.853Z,70.63
2022-10-20T08:26:24.880Z,70.79
2022-10-20T08:31:27.036Z,70.83
2022-10-20T08:36:47.672Z,70.13
2022-10-20T08:42:12.331Z,69.04
2022-10-20T08:47:36.989Z,69.07
2022-10-20T08:52:41.417Z,69.18
2022-10-20T08:57:43.727Z,68.97
2022-10-20T09:02:47.412Z,68.77
2022-10-20T09:07:50.295Z,68.46
2022-10-20T09:12:52.761Z,68.11
2022-10-20T09:17:57.508Z,68.22
2022-10-20T09:23:04.069Z,68.78
2022-10-20T09:28:26.713Z,67.39
2022-10-20T09:33:30.513Z,68.45
2022-10-20T09:38:46.289Z,68.09
2022-10-20T09:44:00.417Z,68.25
2022-10-20T09:49:27.692Z,67.80
2022-10-20T09:54:30.004Z,67.90
2022-10-20T09:59:45.872Z,65.87
2022-10-20T10:04:50.194Z,67.16
2022-10-20T10:10:20.236Z,66.18
2022-10-20T10:15:28.556Z,66.23
2022-10-20T10:20:37.385Z,65.15
2022-10-20T10:25:39.498Z,66.70
2022-10-20T10:30:46.812Z,66.49
2022-10-20T10:35:51.728Z,66.52
2022-10-20T10:41:36.627Z,66.40
2022-10-20T10:46:58.632Z,65.89
2022-10-20T10:52:55.213Z,65.71
2022-10-20T10:58:10.994Z,66.58
2022-10-20T11:03:46.957Z,66.53
2022-10-20T11:09:15.780Z,66.35
2022-10-20T11:14:33.206Z,66.09
2022-10-20T11:19:54.570Z,65.70
2022-10-20T11:25:37.941Z,65.73
2022-10-20T11:30:40.191Z,66.87
2022-10-20T11:35:52.370Z,66.04
2022-10-20T11:41:50.158Z,65.65
2022-10-20T11:46:56.303Z,66.85
2022-10-20T11:52:28.244Z,66.52
2022-10-20T11:58:01.160Z,65.93
2022-10-20T12:03:37.061Z,67.07
2022-10-20T12:09:11.546Z,66.85
2022-10-20T12:14:17.184Z,67.18
2022-10-20T12:19:35.068Z,67.42
2022-10-20T12:24:55.492Z,67.40
2022-10-20T12:30:18.982Z,67.41
2022-10-20T12:35:24.067Z,67.54
2022-10-20T12:40:52.304Z,66.09
2022-10-20T12:51:31.779Z,66.65
2022-10-20T12:56:37.560Z,66.64
2022-10-20T13:02:10.746Z,65.61
2022-10-20T13:07:12.847Z,66.95
2022-10-20T13:12:30.543Z,66.25
2022-10-20T13:17:48.338Z,66.68
2022-10-20T13:22:52.099Z,67.49
2022-10-20T13:28:05.727Z,66.87
2022-10-20T13:33:44.465Z,66.87
2022-10-20T13:39:24.054Z,67.13
2022-10-20T13:44:31.879Z,67.52
2022-10-20T13:50:14.050Z,67.45
2022-10-20T13:55:30.940Z,68.14
2022-10-20T14:00:34.608Z,68.35
2022-10-20T14:05:43.171Z,68.23
2022-10-20T14:10:52.715Z,68.38
2022-10-20T14:15:57.218Z,68.50
2022-10-20T14:21:01.364Z,68.74
2022-10-20T14:26:05.344Z,68.84
2022-10-20T14:31:08.604Z,68.75
2022-10-20T14:36:23.330Z,69.17
2022-10-20T14:41:29.032Z,69.24
2022-10-20T14:46:35.495Z,69.29
2022-10-20T14:51:41.241Z,69.36
2022-10-20T14:56:45.681Z,69.29
2022-10-20T15:02:17.359Z,69.23
2022-10-20T15:07:33.791Z,69.32
2022-10-20T15:12:56.106Z,69.40
2022-10-20T15:18:20.299Z,69.88
2022-10-20T15:23:28.303Z,68.72
2022-10-20T15:28:43.660Z,68.88
2022-10-20T15:33:46.814Z,68.88
2022-10-20T15:38:50.203Z,69.11
2022-10-20T15:43:52.797Z,69.14
2022-10-20T15:49:14.538Z,68.97
2022-10-20T15:54:20.227Z,68.45
2022-10-20T15:59:41.210Z,68.72
2022-10-20T16:05:02.200Z,68.59
2022-10-20T16:10:25.361Z,68.43
2022-10-20T16:15:30.390Z,68.40
2022-10-20T16:20:33.474Z,68.39
2022-10-20T16:25:35.797Z,68.60
2022-10-20T16:31:11.145Z,68.30
2022-10-20T16:36:31.745Z,68.77
2022-10-20T16:41:34.080Z,68.83
2022-10-20T16:46:38.827Z,68.69
2022-10-20T16:51:41.055Z,68.60
2022-10-20T16:57:02.393Z,68.46
2022-10-20T17:02:05.165Z,68.25
2022-10-20T17:07:08.913Z,68.28
2022-10-20T17:12:30.076Z,68.43
2022-10-20T17:17:50.696Z,68.28
2022-10-20T17:22:56.028Z,68.09
2022-10-20T17:28:20.065Z,68.18
2022-10-20T17:33:23.570Z,68.16
2022-10-20T17:38:27.728Z,68.09
2022-10-20T17:43:30.129Z,67.66
2022-10-20T17:48:32.823Z,67.61
2022-10-20T17:53:36.684Z,67.48
2022-10-20T17:58:39.058Z,67.64
2022-10-20T18:03:42.116Z,67.42
2022-10-20T18:08:44.708Z,67.35
2022-10-20T18:13:47.647Z,67.65
2022-10-20T18:18:50.619Z,67.53
2022-10-20T18:24:02.395Z,66.93
2022-10-20T18:29:06.552Z,67.42
2022-10-20T18:34:13.906Z,67.25
2022-10-20T18:39:17.040Z,67.45
2022-10-20T18:44:38.958Z,67.40
2022-10-20T18:49:59.659Z,67.58
2022-10-20T18:55:02.650Z,67.48
2022-10-20T19:00:09.724Z,67.22
2022-10-20T19:05:14.089Z,67.71
2022-10-20T19:10:16.358Z,67.74
2022-10-20T19:15:40.693Z,67.37
2022-10-20T19:20:42.945Z,67.61
2022-10-20T19:25:45.285Z,67.73
2022-10-20T19:30:47.546Z,67.80
2022-10-20T19:35:50.579Z,67.56
2022-10-20T19:40:54.838Z,67.68
2022-10-20T19:45:58.874Z,67.70
2022-10-20T19:51:01.211Z,67.95
2022-10-20T19:56:07.582Z,67.90
2022-10-20T20:01:28.590Z,67.77
2022-10-20T20:06:30.794Z,67.85
2022-10-20T20:11:34.635Z,67.89
2022-10-20T20:16:46.378Z,67.89
2022-10-20T20:21:50.137Z,67.62
2022-10-20T20:26:52.392Z,67.66
2022-10-20T20:32:13.433Z,67.82
2022-10-20T20:37:15.668Z,67.81
2022-10-20T20:42:17.924Z,67.46
2022-10-20T20:47:20.142Z,67.91
2022-10-20T20:52:22.415Z,67.67
2022-10-20T20:57:24.733Z,68.05
2022-10-20T21:02:46.036Z,68.09
2022-10-20T21:08:06.914Z,68.00
2022-10-20T21:13:09.124Z,67.91
2022-10-20T21:18:11.482Z,68.22
2022-10-20T21:23:13.707Z,68.27
2022-10-20T21:28:15.904Z,68.23
2022-10-20T21:33:18.136Z,68.45
2022-10-20T21:38:40.472Z,68.65
2022-10-20T21:43:45.229Z,68.90
2022-10-20T21:48:49.062Z,69.03
2022-10-20T21:53:58.246Z,69.22
2022-10-20T21:59:00.399Z,69.30
2022-10-20T22:04:02.670Z,69.42
2022-10-20T22:09:05.644Z,69.23
2022-10-20T22:14:08.176Z,69.26
2022-10-20T22:19:16.129Z,69.52
2022-10-20T22:24:21.572Z,69.51
2022-10-20T22:29:24.220Z,69.72
2022-10-20T22:34:26.403Z,69.78
2022-10-20T22:39:28.598Z,69.75
2022-10-20T22:44:30.839Z,69.62
2022-10-20T22:49:33.037Z,69.67
2022-10-20T22:54:35.153Z,69.69
2022-10-20T22:59:37.437Z,69.91
2022-10-20T23:04:39.638Z,69.83
2022-10-20T23:10:00.905Z,70.00
2022-10-20T23:15:03.320Z,70.20
2022-10-20T23:20:06.793Z,70.19
2022-10-20T23:25:09.199Z,70.37
2022-10-20T23:30:29.895Z,70.47
2022-10-20T23:35:35.403Z,71.06
2022-10-20T23:40:37.912Z,70.81
2022-10-20T23:45:40.118Z,71.01
2022-10-20T23:50:43.583Z,71.15
2022-10-20T23:56:04.714Z,71.17
